Airfield :
LOGIN :

Register | Disclaimer

   EN    FR    IT 

 










Legend :    VFR   Marginal VFR   IFR   Intensive IFR   Very Intensive IFR
Visi :
Ceiling :
>= 8 km
>= 3000ft
5 to 8 km
1000 to 3000 ft
1500m to 5 km
500 to 1000 ft
800 to 1500m
200 to 500 ft
< 800m
< 200 ft
Symbols :   Thunderstorms  Fog  Heavy snow  Heavy precipitations  Wind > 20 kt
SIGMETs :     Misc.  Thunderstorms  Icing  Turbulence  Mountain Waves  Volcanic Ashes







- Airport Elevation : 313 ft
- IATA code : LEH
- Download approach charts


LFOH - Le Havre Octeville

CURRENT METAR :
  • 250030Z AUTO 23012KT 9999 SCT015/// OVC034/// ///TCU 12/11 Q1013

EXPIRED METARs :
  • 250000Z AUTO 22011KT 9999 SCT007 SCT011 OVC038 12/10 Q1013
  • 242330Z AUTO 24012KT 9999 OVC010 12/10 Q1013
  • 242300Z AUTO 24013KT 9999 OVC013 12/10 Q1013
  • 242230Z AUTO 24009KT 9999 BKN017 OVC033 12/10 Q1013
  • 242200Z AUTO 24009KT 9999 FEW020 OVC038 12/10 Q1013

TAF TAF LFOH
Valid from the 24 at 12:00 until the 25 at 12:00 UTC


241100Z 2412/2512 24010KT 9999 BKN013 OVC020
BECMG 2412/2415 BKN030
BECMG 2423/2501 24017G27KT BKN013 OVC020
TEMPO 2501/2507 2000 RADZ OVC003
BECMG 2504/2507 28013KT BKN013 BKN030
BECMG 2507/2509 BKN020
TEMPO 2509/2512 3000 SHRA
ATIS : +33 2 35 54 64 93
No reported NOTAMs for that airfield.



MET'MAP, your aeronautical weather chart ! - Copyright ORBIFLY December 2007 - Disclaimer

ORBIFLY MET'MAP TEAM :

Programming & Development : Alexandra Zaïnal
Concept & Development : Baudouin d'Aumeries
Co-Development & Prog : Marc-Olivier Méhu
Technical & hardware support : Manuel Goepfert

Contact : metmap@orbifly.com




SOURCES & CREDITS :

   NOAA